createdAt,value
2022-11-05T00:00:37.679Z,47.50
2022-11-05T00:03:24.850Z,44.75
2022-11-05T00:06:13.535Z,40.00
2022-11-05T00:09:01.302Z,41.00
2022-11-05T00:11:47.802Z,38.25
2022-11-05T00:14:34.567Z,39.50
2022-11-05T00:17:02.906Z,31.25
2022-11-05T00:19:31.255Z,33.75
2022-11-05T00:22:17.909Z,30.75
2022-11-05T00:25:04.405Z,36.75
2022-11-05T00:27:35.297Z,28.25
2022-11-05T00:30:03.614Z,34.00
2022-11-05T00:32:33.715Z,31.00
2022-11-05T00:35:02.039Z,33.25
2022-11-05T00:37:31.002Z,34.75
2022-11-05T00:39:59.347Z,30.75
2022-11-05T00:42:45.881Z,34.00
2022-11-05T00:45:14.761Z,37.00
2022-11-05T00:48:01.719Z,37.75
2022-11-05T00:50:31.833Z,38.50
2022-11-05T00:53:01.468Z,40.75
2022-11-05T00:55:46.933Z,38.00
2022-11-05T00:58:18.620Z,40.25
2022-11-05T01:00:51.904Z,44.00
2022-11-05T01:03:22.952Z,41.25
2022-11-05T01:05:54.189Z,44.00
2022-11-05T01:08:24.877Z,43.50
2022-11-05T01:10:55.994Z,44.00
2022-11-05T01:13:30.453Z,39.25
2022-11-05T01:15:59.029Z,37.75
2022-11-05T01:18:27.534Z,39.25
2022-11-05T01:20:55.827Z,35.25
2022-11-05T01:23:24.143Z,38.00
2022-11-05T01:25:52.530Z,40.00
2022-11-05T01:28:20.951Z,36.50
2022-11-05T01:30:57.100Z,35.75
2022-11-05T01:33:25.964Z,31.50
2022-11-05T01:35:54.694Z,35.00
2022-11-05T01:38:23.083Z,38.75
2022-11-05T01:40:51.496Z,34.75
2022-11-05T01:43:22.625Z,32.50
2022-11-05T01:45:59.985Z,30.25
2022-11-05T01:48:36.728Z,32.50
2022-11-05T01:51:18.421Z,38.00
2022-11-05T01:53:53.165Z,28.75
2022-11-05T01:56:31.234Z,29.50
2022-11-05T01:59:23.236Z,25.50
2022-11-05T02:01:52.673Z,33.25
2022-11-05T02:04:49.959Z,32.00
2022-11-05T02:07:19.075Z,30.25
2022-11-05T02:10:10.485Z,34.25
2022-11-05T02:12:42.716Z,34.00
2022-11-05T02:15:17.021Z,29.75
2022-11-05T02:18:23.550Z,32.25
2022-11-05T02:21:00.781Z,35.50
2022-11-05T02:23:59.341Z,34.00
2022-11-05T02:26:33.480Z,29.00
2022-11-05T02:29:07.568Z,34.75
2022-11-05T02:31:44.753Z,30.75
2022-11-05T02:35:00.502Z,32.75
2022-11-05T02:37:41.209Z,35.00
2022-11-05T02:40:46.604Z,29.00
2022-11-05T02:43:37.067Z,31.25
2022-11-05T02:46:13.417Z,31.50
2022-11-05T02:48:54.474Z,30.25
2022-11-05T02:51:32.778Z,36.00
2022-11-05T02:54:14.362Z,35.25
2022-11-05T02:56:49.402Z,33.50
2022-11-05T02:59:17.742Z,30.25
2022-11-05T03:01:48.086Z,37.25
2022-11-05T03:04:20.949Z,32.50
2022-11-05T03:07:09.340Z,33.50
2022-11-05T03:10:05.047Z,33.00
2022-11-05T03:12:58.054Z,33.75
2022-11-05T03:15:35.005Z,31.50
2022-11-05T03:18:18.339Z,31.50
2022-11-05T03:21:04.107Z,34.00
2022-11-05T03:23:59.908Z,32.25
2022-11-05T03:26:33.017Z,31.25
2022-11-05T03:29:07.609Z,36.50
2022-11-05T03:31:38.401Z,37.00
2022-11-05T03:34:11.695Z,34.25
2022-11-05T03:36:46.203Z,36.75
2022-11-05T03:39:21.294Z,35.25
2022-11-05T03:41:53.406Z,38.50
2022-11-05T03:44:27.800Z,35.50
2022-11-05T03:47:06.743Z,33.50
2022-11-05T03:49:41.447Z,32.75
2022-11-05T03:52:17.536Z,29.25
2022-11-05T03:54:46.782Z,31.25
2022-11-05T03:57:27.131Z,34.00
2022-11-05T03:59:55.455Z,34.50
2022-11-05T04:02:27.275Z,31.50
2022-11-05T04:04:56.289Z,29.75
2022-11-05T04:07:42.824Z,31.50
2022-11-05T04:10:29.427Z,35.75
2022-11-05T04:13:16.134Z,29.00
2022-11-05T04:16:02.697Z,25.75
2022-11-05T04:18:31.022Z,35.75
2022-11-05T04:21:17.519Z,26.75
2022-11-05T04:24:04.138Z,30.50
2022-11-05T04:26:32.504Z,30.25
2022-11-05T04:29:19.404Z,30.50
2022-11-05T04:31:47.772Z,29.00
2022-11-05T04:34:17.244Z,28.75
2022-11-05T04:36:46.742Z,27.00
2022-11-05T04:39:15.073Z,25.50
2022-11-05T04:41:43.878Z,26.75
2022-11-05T04:44:12.322Z,27.50
2022-11-05T04:46:40.925Z,29.50
2022-11-05T04:49:09.430Z,28.75
2022-11-05T04:51:37.753Z,28.25
2022-11-05T04:54:06.106Z,30.25
2022-11-05T04:56:34.565Z,26.50
2022-11-05T04:59:02.926Z,30.25
2022-11-05T05:01:31.377Z,26.25
2022-11-05T05:03:59.775Z,27.50
2022-11-05T05:06:28.115Z,27.25
2022-11-05T05:08:56.452Z,25.75
2022-11-05T05:11:25.016Z,25.25
2022-11-05T05:13:53.350Z,23.00
2022-11-05T05:16:27.399Z,22.25
2022-11-05T05:18:56.256Z,22.75
2022-11-05T05:21:40.069Z,21.25
2022-11-05T05:24:11.645Z,17.75
2022-11-05T05:26:42.585Z,19.25
2022-11-05T05:29:11.652Z,22.75
2022-11-05T05:31:40.972Z,25.25
2022-11-05T05:34:11.786Z,18.25
2022-11-05T05:36:40.188Z,17.00
2022-11-05T05:39:11.824Z,18.50
2022-11-05T05:41:40.262Z,20.50
2022-11-05T05:44:08.862Z,18.25
2022-11-05T05:46:37.223Z,20.50
2022-11-05T05:49:09.579Z,20.25
2022-11-05T05:51:40.999Z,16.75
2022-11-05T05:54:09.652Z,17.75
2022-11-05T05:56:38.008Z,18.75
2022-11-05T05:59:07.321Z,14.75
2022-11-05T06:01:35.796Z,19.75
2022-11-05T06:04:04.417Z,24.75
2022-11-05T06:06:32.859Z,19.50
2022-11-05T06:09:01.186Z,19.50
2022-11-05T06:11:29.618Z,21.75
2022-11-05T06:13:58.602Z,20.50
2022-11-05T06:16:26.968Z,20.25
2022-11-05T06:18:55.648Z,19.00
2022-11-05T06:21:23.966Z,16.75
2022-11-05T06:23:52.400Z,25.00
2022-11-05T06:26:21.354Z,22.00
2022-11-05T06:28:49.656Z,17.00
2022-11-05T06:31:18.906Z,20.25
2022-11-05T06:33:48.254Z,15.25
2022-11-05T06:36:19.458Z,19.25
2022-11-05T06:38:48.225Z,18.25
2022-11-05T06:41:17.040Z,17.25
2022-11-05T06:43:45.553Z,22.50
2022-11-05T06:46:13.971Z,19.50
2022-11-05T06:48:42.322Z,19.50
2022-11-05T06:51:11.240Z,19.25
2022-11-05T06:53:39.583Z,17.75
2022-11-05T06:56:08.958Z,20.75
2022-11-05T06:58:38.100Z,18.00
2022-11-05T07:01:09.994Z,19.00
2022-11-05T07:03:39.805Z,18.25
2022-11-05T07:06:09.069Z,16.75
2022-11-05T07:08:38.702Z,19.75
2022-11-05T07:11:07.239Z,17.50
2022-11-05T07:13:41.698Z,19.25
2022-11-05T07:16:10.478Z,17.25
2022-11-05T07:18:39.340Z,18.50
2022-11-05T07:21:08.930Z,18.75
2022-11-05T07:23:37.313Z,20.75
2022-11-05T07:26:06.039Z,20.25
2022-11-05T07:28:34.413Z,18.00
2022-11-05T07:31:02.837Z,15.50
2022-11-05T07:33:36.152Z,18.00
2022-11-05T07:36:05.097Z,16.50
2022-11-05T07:38:33.483Z,13.25
2022-11-05T07:41:01.830Z,15.00
2022-11-05T07:43:30.255Z,17.75
2022-11-05T07:45:58.666Z,16.75
2022-11-05T07:48:27.021Z,15.25
2022-11-05T07:50:56.123Z,17.00
2022-11-05T07:53:24.519Z,15.25
2022-11-05T07:55:53.580Z,16.75
2022-11-05T07:58:26.381Z,16.75
2022-11-05T08:00:54.921Z,17.75
2022-11-05T08:03:23.539Z,16.25
2022-11-05T08:05:51.864Z,13.75
2022-11-05T08:08:21.431Z,18.00
2022-11-05T08:10:49.757Z,19.00
2022-11-05T08:13:18.833Z,15.25
2022-11-05T08:15:47.243Z,18.50
2022-11-05T08:18:17.820Z,18.25
2022-11-05T08:20:47.852Z,17.00
2022-11-05T08:23:16.754Z,16.50
2022-11-05T08:25:45.066Z,16.00
2022-11-05T08:28:14.664Z,18.50
2022-11-05T08:30:43.454Z,16.25
2022-11-05T08:33:14.269Z,15.25
2022-11-05T08:35:43.327Z,17.50
2022-11-05T08:38:16.900Z,16.00
2022-11-05T08:40:47.124Z,19.25
2022-11-05T08:43:15.826Z,20.00
2022-11-05T08:45:44.311Z,20.50
2022-11-05T08:48:18.163Z,14.50
2022-11-05T08:50:48.350Z,22.00
2022-11-05T08:53:22.783Z,15.50
2022-11-05T08:55:52.538Z,14.50
2022-11-05T08:58:21.602Z,14.25
2022-11-05T09:00:51.012Z,16.25
2022-11-05T09:03:19.832Z,16.25
2022-11-05T09:05:48.335Z,14.25
2022-11-05T09:08:19.783Z,16.25
2022-11-05T09:10:49.031Z,15.25
2022-11-05T09:13:20.017Z,13.75
2022-11-05T09:15:50.722Z,14.50
2022-11-05T09:18:20.359Z,14.50
2022-11-05T09:20:49.274Z,14.50
2022-11-05T09:23:17.889Z,16.75
2022-11-05T09:25:47.283Z,13.75
2022-11-05T09:28:19.175Z,14.75
2022-11-05T09:30:50.446Z,12.25
2022-11-05T09:33:22.272Z,12.75
2022-11-05T09:35:50.663Z,17.50
2022-11-05T09:38:19.269Z,16.75
2022-11-05T09:41:16.111Z,14.25
2022-11-05T09:43:48.645Z,14.50
2022-11-05T09:46:20.677Z,18.00
2022-11-05T09:48:53.509Z,18.50
2022-11-05T09:51:24.301Z,12.25
2022-11-05T09:53:54.725Z,14.00
2022-11-05T09:56:25.282Z,15.75
2022-11-05T09:59:07.607Z,13.00
2022-11-05T10:01:38.990Z,18.00
2022-11-05T10:04:16.353Z,17.75
2022-11-05T10:06:52.567Z,17.75
2022-11-05T10:09:32.402Z,16.75
2022-11-05T10:12:08.843Z,15.50
2022-11-05T10:14:52.265Z,18.50
2022-11-05T10:17:27.681Z,19.50
2022-11-05T10:20:16.749Z,16.50
2022-11-05T10:22:49.298Z,22.00
2022-11-05T10:25:21.200Z,20.75
2022-11-05T10:27:55.351Z,19.50
2022-11-05T10:30:24.542Z,22.00
2022-11-05T10:33:00.674Z,25.75
2022-11-05T10:35:32.517Z,16.00
2022-11-05T10:38:00.882Z,24.25
2022-11-05T10:40:56.668Z,27.25
2022-11-05T10:44:08.590Z,20.75
2022-11-05T10:46:39.515Z,23.25
2022-11-05T10:49:32.917Z,22.75
2022-11-05T10:52:27.279Z,24.25
2022-11-05T10:55:00.907Z,23.75
2022-11-05T10:57:39.662Z,25.00
2022-11-05T11:00:17.470Z,27.75
2022-11-05T11:02:48.231Z,28.50
2022-11-05T11:05:28.477Z,23.75
2022-11-05T11:08:13.003Z,23.25
2022-11-05T11:11:03.790Z,24.00
2022-11-05T11:13:59.519Z,21.75
2022-11-05T11:16:31.799Z,24.00
2022-11-05T11:19:02.191Z,25.00
2022-11-05T11:21:32.856Z,25.75
2022-11-05T11:24:10.373Z,28.00
2022-11-05T11:26:41.507Z,27.00
2022-11-05T11:29:09.861Z,24.25
2022-11-05T11:31:40.820Z,24.75
2022-11-05T11:34:13.945Z,25.75
2022-11-05T11:36:51.834Z,23.50
2022-11-05T11:39:31.464Z,23.00
2022-11-05T11:42:04.640Z,21.25
2022-11-05T11:44:40.895Z,29.00
2022-11-05T11:47:16.359Z,27.25
2022-11-05T11:49:58.067Z,29.50
2022-11-05T11:52:33.943Z,25.75
2022-11-05T11:55:14.599Z,24.50
2022-11-05T11:57:55.568Z,26.75
2022-11-05T12:00:27.896Z,26.50
2022-11-05T12:03:26.700Z,25.75
2022-11-05T12:06:06.993Z,21.25
2022-11-05T12:09:06.903Z,29.25
2022-11-05T12:11:41.433Z,22.75
2022-11-05T12:14:25.141Z,23.75
2022-11-05T12:17:02.520Z,24.00
2022-11-05T12:19:47.136Z,23.00
2022-11-05T12:22:47.575Z,27.00
2022-11-05T12:25:20.508Z,25.00
2022-11-05T12:28:11.497Z,25.00
2022-11-05T12:30:57.671Z,27.00
2022-11-05T12:33:36.237Z,27.00
2022-11-05T12:36:34.470Z,28.00
2022-11-05T12:39:41.515Z,27.25
2022-11-05T12:42:40.432Z,30.25
2022-11-05T12:45:40.219Z,31.00
2022-11-05T12:48:30.268Z,30.25
2022-11-05T12:51:05.422Z,30.00
2022-11-05T12:53:51.998Z,32.50
2022-11-05T12:56:41.286Z,35.75
2022-11-05T12:59:20.520Z,35.00
2022-11-05T13:01:56.833Z,32.50
2022-11-05T13:04:43.004Z,35.25
2022-11-05T13:07:15.181Z,35.75
2022-11-05T13:09:52.237Z,35.00
2022-11-05T13:12:25.754Z,33.75
2022-11-05T13:15:02.230Z,35.00
2022-11-05T13:17:42.238Z,41.00
2022-11-05T13:20:25.099Z,41.75
2022-11-05T13:23:08.093Z,49.00
2022-11-05T13:25:42.861Z,49.00
2022-11-05T13:28:23.439Z,43.00
2022-11-05T13:30:59.197Z,44.00
2022-11-05T13:33:39.016Z,41.75
2022-11-05T13:36:28.622Z,39.50
2022-11-05T13:39:16.480Z,37.00
2022-11-05T13:42:24.667Z,41.50
2022-11-05T13:45:21.917Z,48.00
2022-11-05T13:48:14.448Z,33.50
2022-11-05T13:50:57.693Z,42.25
2022-11-05T13:54:05.118Z,41.00
2022-11-05T13:56:48.825Z,37.75
2022-11-05T13:59:54.089Z,40.00
2022-11-05T14:02:30.277Z,39.25
2022-11-05T14:05:02.095Z,40.25
2022-11-05T14:07:34.719Z,41.75
2022-11-05T14:10:16.771Z,40.25
2022-11-05T14:12:51.440Z,41.75
2022-11-05T14:15:24.712Z,40.00
2022-11-05T14:18:27.849Z,37.50
2022-11-05T14:21:02.453Z,37.75
2022-11-05T14:23:41.708Z,38.00
2022-11-05T14:26:19.640Z,37.00
2022-11-05T14:29:12.327Z,39.50
2022-11-05T14:32:09.516Z,38.00
2022-11-05T14:34:42.771Z,42.00
2022-11-05T14:37:19.089Z,42.75
2022-11-05T14:39:47.547Z,43.50
2022-11-05T14:42:24.691Z,40.75
2022-11-05T14:45:18.778Z,38.25
2022-11-05T14:47:59.345Z,37.00
2022-11-05T14:50:37.119Z,37.25
2022-11-05T14:53:14.041Z,40.50
2022-11-05T14:55:44.864Z,43.50
2022-11-05T14:58:30.109Z,41.50
2022-11-05T15:01:00.543Z,41.00
2022-11-05T15:03:45.855Z,43.25
2022-11-05T15:06:26.804Z,43.75
2022-11-05T15:09:14.726Z,42.50
2022-11-05T15:12:10.148Z,41.75
2022-11-05T15:14:50.399Z,38.50
2022-11-05T15:17:45.949Z,40.50
2022-11-05T15:20:21.338Z,38.75
2022-11-05T15:22:53.770Z,43.00
2022-11-05T15:25:34.775Z,41.75
2022-11-05T15:28:27.687Z,41.75
2022-11-05T15:31:20.678Z,43.75
2022-11-05T15:33:49.533Z,43.00
2022-11-05T15:36:32.831Z,37.75
2022-11-05T15:39:28.863Z,42.25
2022-11-05T15:41:49.910Z,41.75
2022-11-05T15:44:29.125Z,35.75
2022-11-05T15:47:22.211Z,42.25
2022-11-05T15:49:59.588Z,43.25
2022-11-05T15:52:43.083Z,39.75
2022-11-05T15:55:13.997Z,39.75
2022-11-05T15:57:50.942Z,42.00
2022-11-05T16:00:24.097Z,39.00
2022-11-05T16:03:16.434Z,42.00
2022-11-05T16:05:48.837Z,41.25
2022-11-05T16:08:25.101Z,40.75
2022-11-05T16:10:59.864Z,37.75
2022-11-05T16:13:34.365Z,36.50
2022-11-05T16:16:22.575Z,38.50
2022-11-05T16:18:50.912Z,38.00
2022-11-05T16:21:23.630Z,38.00
2022-11-05T16:23:59.051Z,39.75
2022-11-05T16:27:00.682Z,35.75
2022-11-05T16:29:18.551Z,38.50
2022-11-05T16:31:55.317Z,43.25
2022-11-05T16:34:29.199Z,32.75
2022-11-05T16:36:59.885Z,37.50
2022-11-05T16:39:28.673Z,34.50
2022-11-05T16:41:57.055Z,38.00
2022-11-05T16:44:25.502Z,33.00
2022-11-05T16:46:54.194Z,33.50
2022-11-05T16:49:22.546Z,32.50
2022-11-05T16:51:50.916Z,33.00
2022-11-05T16:54:19.232Z,30.50
2022-11-05T16:56:48.386Z,32.75
2022-11-05T16:59:16.819Z,33.25
2022-11-05T17:01:45.407Z,28.75
2022-11-05T17:04:14.885Z,32.75
2022-11-05T17:06:44.689Z,33.75
2022-11-05T17:09:13.004Z,32.50
2022-11-05T17:11:41.529Z,28.50
2022-11-05T17:14:15.288Z,32.75
2022-11-05T17:16:43.583Z,31.00
2022-11-05T17:19:16.686Z,29.25
2022-11-05T17:21:45.497Z,24.25
2022-11-05T17:24:14.012Z,29.75
2022-11-05T17:26:42.338Z,25.50
2022-11-05T17:29:10.707Z,24.50
2022-11-05T17:31:41.863Z,27.00
2022-11-05T17:34:11.863Z,25.50
2022-11-05T17:36:40.281Z,22.25
2022-11-05T17:39:08.679Z,26.50
2022-11-05T17:41:36.987Z,21.75
2022-11-05T17:44:05.331Z,28.75
2022-11-05T17:46:33.706Z,24.00
2022-11-05T17:49:02.076Z,23.50
2022-11-05T17:51:30.415Z,25.25
2022-11-05T17:53:58.795Z,24.75
2022-11-05T17:56:33.937Z,23.75
2022-11-05T17:59:04.817Z,25.25
2022-11-05T18:01:36.706Z,23.00
2022-11-05T18:04:08.982Z,26.00
2022-11-05T18:06:40.461Z,29.50
2022-11-05T18:09:10.459Z,24.25
2022-11-05T18:11:39.103Z,25.25
2022-11-05T18:14:08.159Z,25.25
2022-11-05T18:16:37.253Z,23.00
2022-11-05T18:19:05.868Z,23.00
2022-11-05T18:21:34.239Z,26.00
2022-11-05T18:24:07.068Z,24.75
2022-11-05T18:26:36.035Z,24.00
2022-11-05T18:29:06.894Z,23.75
2022-11-05T18:31:35.282Z,21.75
2022-11-05T18:34:03.790Z,28.00
2022-11-05T18:36:33.989Z,20.75
2022-11-05T18:39:05.109Z,26.75
2022-11-05T18:41:34.313Z,23.75
2022-11-05T18:44:03.919Z,24.75
2022-11-05T18:46:57.020Z,29.75
2022-11-05T18:49:22.600Z,24.50
2022-11-05T18:51:50.949Z,22.50
2022-11-05T18:54:19.350Z,23.25
2022-11-05T18:56:47.775Z,25.75
2022-11-05T18:59:36.924Z,26.25
2022-11-05T19:02:07.951Z,27.50
2022-11-05T19:04:37.879Z,22.75
2022-11-05T19:07:07.334Z,27.75
2022-11-05T19:09:36.924Z,29.00
2022-11-05T19:12:06.197Z,23.00
2022-11-05T19:14:35.253Z,23.25
2022-11-05T19:17:04.234Z,23.50
2022-11-05T19:19:32.588Z,26.75
2022-11-05T19:22:00.954Z,24.25
2022-11-05T19:24:29.335Z,28.50
2022-11-05T19:26:57.812Z,27.50
2022-11-05T19:29:26.118Z,27.25
2022-11-05T19:31:54.477Z,24.00
2022-11-05T19:34:22.805Z,27.75
2022-11-05T19:36:51.149Z,29.75
2022-11-05T19:39:19.528Z,28.75
2022-11-05T19:41:49.531Z,27.25
2022-11-05T19:44:17.868Z,28.50
2022-11-05T19:46:46.816Z,26.75
2022-11-05T19:49:15.137Z,27.25
2022-11-05T19:51:43.522Z,24.50
2022-11-05T19:54:12.176Z,29.50
2022-11-05T19:56:40.528Z,25.25
2022-11-05T19:59:08.994Z,24.25
2022-11-05T20:01:37.558Z,27.50
2022-11-05T20:04:06.712Z,26.00
2022-11-05T20:06:39.661Z,29.00
2022-11-05T20:09:26.529Z,27.00
2022-11-05T20:11:57.142Z,28.75
2022-11-05T20:14:26.981Z,28.25
2022-11-05T20:16:55.921Z,24.75
2022-11-05T20:19:24.959Z,28.50
2022-11-05T20:21:53.313Z,26.00
2022-11-05T20:24:25.300Z,26.00
2022-11-05T20:26:59.224Z,26.25
2022-11-05T20:29:34.788Z,25.00
2022-11-05T20:32:04.889Z,26.25
2022-11-05T20:34:35.193Z,27.75
2022-11-05T20:37:03.618Z,26.50
2022-11-05T20:39:32.015Z,27.00
2022-11-05T20:42:01.534Z,27.25
2022-11-05T20:44:29.975Z,26.75
2022-11-05T20:46:58.363Z,26.25
2022-11-05T20:49:26.750Z,27.00
2022-11-05T20:51:55.511Z,24.00
2022-11-05T20:54:24.070Z,24.00
2022-11-05T20:56:52.857Z,28.00
2022-11-05T20:59:21.186Z,24.75
2022-11-05T21:01:51.297Z,23.00
2022-11-05T21:04:19.682Z,25.00
2022-11-05T21:06:48.041Z,25.25
2022-11-05T21:09:16.349Z,29.00
2022-11-05T21:12:03.034Z,25.50
2022-11-05T21:14:31.355Z,27.00
2022-11-05T21:16:59.669Z,21.00
2022-11-05T21:19:28.034Z,24.25
2022-11-05T21:21:56.587Z,20.25
2022-11-05T21:24:25.184Z,22.25
2022-11-05T21:26:54.516Z,25.50
2022-11-05T21:29:23.005Z,30.25
2022-11-05T21:31:51.352Z,27.00
2022-11-05T21:34:20.166Z,25.50
2022-11-05T21:36:48.493Z,23.25
2022-11-05T21:39:16.884Z,23.50
2022-11-05T21:41:45.305Z,23.25
2022-11-05T21:44:13.624Z,21.75
2022-11-05T21:46:42.113Z,27.75
2022-11-05T21:49:10.461Z,21.75
2022-11-05T21:51:57.004Z,22.75
2022-11-05T21:54:43.961Z,21.50
2022-11-05T21:57:35.302Z,21.00
2022-11-05T22:00:12.851Z,25.00
2022-11-05T22:02:41.280Z,25.25
2022-11-05T22:05:09.989Z,20.00
2022-11-05T22:07:40.083Z,23.25
2022-11-05T22:10:15.888Z,20.00
2022-11-05T22:12:45.695Z,27.75
2022-11-05T22:15:15.151Z,21.00
2022-11-05T22:17:46.896Z,22.25
2022-11-05T22:20:16.246Z,23.50
2022-11-05T22:22:44.978Z,23.00
2022-11-05T22:25:14.404Z,23.00
2022-11-05T22:27:44.595Z,24.75
2022-11-05T22:30:14.026Z,26.75
2022-11-05T22:32:42.452Z,25.00
2022-11-05T22:35:11.651Z,27.75
2022-11-05T22:37:40.109Z,23.25
2022-11-05T22:40:08.895Z,24.00
2022-11-05T22:42:37.296Z,25.25
2022-11-05T22:45:06.113Z,25.50
2022-11-05T22:47:34.547Z,23.25
2022-11-05T22:50:03.832Z,26.50
2022-11-05T22:52:33.641Z,28.75
2022-11-05T22:55:04.746Z,31.50
2022-11-05T22:57:33.329Z,27.50
2022-11-05T23:00:01.816Z,24.25
2022-11-05T23:02:30.312Z,22.00
2022-11-05T23:04:58.760Z,26.00
2022-11-05T23:07:45.258Z,26.75
2022-11-05T23:10:31.832Z,27.25
2022-11-05T23:13:00.144Z,25.25
2022-11-05T23:15:46.709Z,26.25
2022-11-05T23:18:33.695Z,24.50
2022-11-05T23:21:23.000Z,26.25
2022-11-05T23:24:07.319Z,27.50
2022-11-05T23:26:52.868Z,28.75
2022-11-05T23:29:26.959Z,26.75
2022-11-05T23:32:13.515Z,37.25
2022-11-05T23:34:41.928Z,34.50
2022-11-05T23:37:28.946Z,35.75
2022-11-05T23:39:57.226Z,37.75
2022-11-05T23:42:43.953Z,38.50
2022-11-05T23:45:30.947Z,41.00
2022-11-05T23:48:17.470Z,39.75
2022-11-05T23:51:03.615Z,36.00
2022-11-05T23:53:34.509Z,43.25
2022-11-05T23:56:14.747Z,41.50
2022-11-05T23:58:43.780Z,47.00
